Time;durP1;ratioP1;P1;durP2;ratioP2;P2;SDS_P1;SDS_P2;PMS_P1;PMS_P2;Temp;Humidity;BMP_temperature;BMP_pressure;BME280_temperature;BME280_humidity;BME280_pressure;Samples;Min_cycle;Max_cycle;Signal;HPM_P1;HPM_P2
2023/05/31 00:00:26;;;;;;;;;;;;;;;14.42;100.00;96173.28;5023320;28;19925;-86
2023/05/31 00:02:53;;;;;;;;;;;;;;;14.28;100.00;96173.69;5033278;28;19926;-86
2023/05/31 00:05:20;;;;;;;;;;;;;;;14.25;100.00;96174.19;5022949;28;19925;-87
2023/05/31 00:07:47;;;;;;;;;;;;;;;14.19;100.00;96175.22;5025590;28;19957;-87
2023/05/31 00:10:14;;;;;;;;;;;;;;;14.19;100.00;96171.69;5029345;28;19925;-87
2023/05/31 00:12:41;;;;;;;;;;;;;;;14.09;100.00;96180.53;5014357;28;19929;-85
2023/05/31 00:15:10;;;;;;;;;;;;;;;14.03;100.00;96178.88;5021389;28;19929;-87
2023/05/31 00:17:36;;;;;;;;;;;;;;;13.97;100.00;96169.84;5027110;28;19933;-87
2023/05/31 00:20:03;;;;;;;;;;;;;;;13.95;100.00;96168.47;5025741;28;19925;-86
2023/05/31 00:22:30;;;;;;;;;;;;;;;13.91;100.00;96162.72;5021157;28;19932;-87
2023/05/31 00:24:57;;;;;;;;;;;;;;;13.84;100.00;96164.81;5026041;28;19926;-86
2023/05/31 00:27:24;;;;;;;;;;;;;;;13.86;100.00;96170.00;5054263;28;19929;-84
2023/05/31 00:29:51;;;;;;;;;;;;;;;13.90;100.00;96169.22;5014346;28;19931;-87
2023/05/31 00:32:19;;;;;;;;;;;;;;;13.93;100.00;96167.91;5035036;28;19932;-86
2023/05/31 00:34:46;;;;;;;;;;;;;;;13.96;100.00;96167.38;5028881;28;19932;-86
2023/05/31 00:37:12;;;;;;;;;;;;;;;13.98;100.00;96167.94;5029869;28;19926;-87
2023/05/31 00:39:39;;;;;;;;;;;;;;;13.95;100.00;96171.19;5030610;28;19926;-86
2023/05/31 00:42:07;;;;;;;;;;;;;;;13.92;100.00;96174.41;5038753;28;19960;-87
2023/05/31 00:44:33;;;;;;;;;;;;;;;13.88;100.00;96168.66;5031881;28;19931;-85
2023/05/31 00:47:00;;;;;;;;;;;;;;;13.84;100.00;96161.28;5035883;28;19932;-87
2023/05/31 00:49:29;;;;;;;;;;;;;;;13.85;100.00;96168.34;5037421;28;19925;-86
2023/05/31 00:51:56;;;;;;;;;;;;;;;13.91;100.00;96161.91;5036166;28;19925;-87
2023/05/31 00:54:23;;;;;;;;;;;;;;;13.92;100.00;96163.53;5032257;28;19952;-86
2023/05/31 00:56:51;;;;;;;;;;;;;;;13.94;100.00;96161.41;5029884;28;19943;-85
2023/05/31 00:59:18;;;;;;;;;;;;;;;13.90;100.00;96154.81;5030976;28;19982;-87
2023/05/31 01:01:45;;;;;;;;;;;;;;;13.89;100.00;96164.03;5032550;28;20012;-86
2023/05/31 01:04:16;;;;;;;;;;;;;;;13.85;100.00;96155.59;5030750;28;19973;-86
2023/05/31 01:06:44;;;;;;;;;;;;;;;13.88;100.00;96159.69;5034258;28;19925;-86
2023/05/31 01:09:11;;;;;;;;;;;;;;;13.93;100.00;96159.75;5043764;28;19936;-86
2023/05/31 01:11:46;;;;;;;;;;;;;;;13.86;100.00;96154.53;5026300;28;20024;-86
2023/05/31 01:14:18;;;;;;;;;;;;;;;13.88;100.00;96156.97;5027232;28;19928;-86
2023/05/31 01:16:52;;;;;;;;;;;;;;;13.86;100.00;96153.72;5039627;28;19929;-86
2023/05/31 01:19:21;;;;;;;;;;;;;;;13.89;100.00;96147.75;5028196;28;19926;-88
2023/05/31 01:21:58;;;;;;;;;;;;;;;13.86;100.00;96151.00;5029405;28;19931;-87
2023/05/31 01:24:27;;;;;;;;;;;;;;;13.85;100.00;96143.94;5027260;28;19978;-87
2023/05/31 01:27:00;;;;;;;;;;;;;;;13.78;100.00;96144.09;5029919;28;19933;-88
2023/05/31 01:29:27;;;;;;;;;;;;;;;13.76;100.00;96149.00;5035627;28;19931;-87
2023/05/31 01:31:56;;;;;;;;;;;;;;;13.78;100.00;96146.03;5038011;28;21372;-87
2023/05/31 01:34:23;;;;;;;;;;;;;;;13.83;100.00;96143.34;5031051;28;19925;-86
2023/05/31 01:36:50;;;;;;;;;;;;;;;13.81;100.00;96140.91;5031046;28;19930;-88
2023/05/31 01:39:17;;;;;;;;;;;;;;;13.72;100.00;96130.75;5042238;28;19947;-87
2023/05/31 01:41:46;;;;;;;;;;;;;;;13.72;100.00;96133.47;5028893;28;19925;-85
2023/05/31 01:44:18;;;;;;;;;;;;;;;13.71;100.00;96129.09;5027693;28;19965;-87
2023/05/31 01:46:45;;;;;;;;;;;;;;;13.68;100.00;96130.47;5028489;28;19929;-88
2023/05/31 01:49:13;;;;;;;;;;;;;;;13.67;100.00;96128.00;5028686;28;19976;-87
2023/05/31 01:51:42;;;;;;;;;;;;;;;13.73;100.00;96121.53;5016033;28;19932;-88
2023/05/31 01:54:09;;;;;;;;;;;;;;;13.67;100.00;96117.13;5031057;28;19935;-88
2023/05/31 01:56:37;;;;;;;;;;;;;;;13.56;100.00;96116.19;5023969;28;19925;-88
2023/05/31 01:59:06;;;;;;;;;;;;;;;13.53;100.00;96101.25;5022418;28;19967;-87
2023/05/31 02:01:35;;;;;;;;;;;;;;;13.47;100.00;96102.28;5015833;28;19937;-89
2023/05/31 02:04:02;;;;;;;;;;;;;;;13.47;100.00;96113.13;5013510;28;19963;-88
2023/05/31 02:06:29;;;;;;;;;;;;;;;13.49;100.00;96100.13;5041742;28;19925;-86
2023/05/31 02:08:56;;;;;;;;;;;;;;;13.44;100.00;96108.19;5039989;28;19959;-87
2023/05/31 02:11:27;;;;;;;;;;;;;;;13.38;100.00;96106.50;5025597;28;19925;-88
2023/05/31 02:13:56;;;;;;;;;;;;;;;13.38;100.00;96106.50;5020127;28;19925;-87
2023/05/31 02:16:23;;;;;;;;;;;;;;;13.42;100.00;96115.78;5024244;28;19925;-86
2023/05/31 02:18:51;;;;;;;;;;;;;;;13.48;100.00;96117.47;5033460;28;19979;-88
2023/05/31 02:21:22;;;;;;;;;;;;;;;13.42;100.00;96115.78;5031708;28;19925;-89
2023/05/31 02:23:48;;;;;;;;;;;;;;;13.41;100.00;96122.28;5027902;28;20000;-87
2023/05/31 02:26:16;;;;;;;;;;;;;;;13.37;100.00;96114.88;5030449;28;20027;-88
2023/05/31 02:28:43;;;;;;;;;;;;;;;13.35;100.00;96117.06;5029403;28;19971;-87
2023/05/31 02:31:10;;;;;;;;;;;;;;;13.36;100.00;96116.78;5030695;28;19929;-88
2023/05/31 02:33:37;;;;;;;;;;;;;;;13.32;100.00;96125.69;5029188;28;19924;-88
2023/05/31 02:36:06;;;;;;;;;;;;;;;13.30;100.00;96120.50;5028070;28;19947;-87
2023/05/31 02:38:33;;;;;;;;;;;;;;;13.35;100.00;96120.59;5021573;28;19925;-86
2023/05/31 02:40:59;;;;;;;;;;;;;;;13.34;100.00;96118.94;5024373;28;19925;-88
2023/05/31 02:43:26;;;;;;;;;;;;;;;13.38;100.00;96128.19;5036650;28;19990;-87
2023/05/31 02:45:53;;;;;;;;;;;;;;;13.36;100.00;96116.78;5044957;28;19932;-86
2023/05/31 02:48:20;;;;;;;;;;;;;;;13.34;100.00;96126.25;5044883;28;19925;-87
2023/05/31 02:50:48;;;;;;;;;;;;;;;13.36;100.00;96122.19;5042152;28;19925;-88
2023/05/31 02:53:28;;;;;;;;;;;;;;;13.35;100.00;96125.19;5019253;28;20016;-88
2023/05/31 02:56:18;;;;;;;;;;;;;;;13.32;100.00;96122.97;5029418;28;19932;-88
2023/05/31 02:59:08;;;;;;;;;;;;;;;13.30;100.00;96131.34;5028104;28;19924;-89
2023/05/31 03:01:51;;;;;;;;;;;;;;;13.20;100.00;96128.50;5025876;28;19967;-86
2023/05/31 03:04:36;;;;;;;;;;;;;;;13.18;100.00;96133.41;5043565;28;19978;-88
2023/05/31 03:07:04;;;;;;;;;;;;;;;13.18;100.00;96139.59;5024672;28;19932;-88
2023/05/31 03:09:33;;;;;;;;;;;;;;;13.20;100.00;96139.34;5027205;28;20021;-87
2023/05/31 03:12:02;;;;;;;;;;;;;;;13.22;100.00;96134.50;5006638;28;19933;-87
2023/05/31 03:14:30;;;;;;;;;;;;;;;13.20;100.00;96144.78;5010830;28;19925;-89
2023/05/31 03:16:57;;;;;;;;;;;;;;;13.06;100.00;96143.50;5001647;28;19925;-86
2023/05/31 03:19:23;;;;;;;;;;;;;;;13.03;100.00;96144.81;5006717;28;19926;-88
2023/05/31 03:21:54;;;;;;;;;;;;;;;13.06;100.00;96148.91;5016017;28;19929;-87
2023/05/31 03:24:21;;;;;;;;;;;;;;;13.03;100.00;96147.50;5009545;28;19926;-88
2023/05/31 03:26:51;;;;;;;;;;;;;;;12.99;100.00;96142.84;5001082;28;19926;-88
2023/05/31 03:29:19;;;;;;;;;;;;;;;13.03;100.00;96157.53;5021456;28;19926;-86
2023/05/31 03:31:47;;;;;;;;;;;;;;;13.09;100.00;96159.25;5007712;28;19925;-88
2023/05/31 03:34:14;;;;;;;;;;;;;;;13.01;100.00;96162.41;5002098;28;19939;-89
2023/05/31 03:36:42;;;;;;;;;;;;;;;13.01;100.00;96162.41;5026856;28;20015;-87
2023/05/31 03:39:30;;;;;;;;;;;;;;;13.05;100.00;96163.53;5010726;28;20071;-88
2023/05/31 03:41:58;;;;;;;;;;;;;;;13.05;100.00;96160.81;5001725;28;19953;-88
2023/05/31 03:44:25;;;;;;;;;;;;;;;13.04;100.00;96159.16;4997737;28;19929;-87
2023/05/31 03:46:53;;;;;;;;;;;;;;;12.98;100.00;96158.28;5014381;28;19925;-86
2023/05/31 03:49:19;;;;;;;;;;;;;;;12.97;100.00;96158.53;5015165;28;20023;-87
2023/05/31 03:51:47;;;;;;;;;;;;;;;12.99;100.00;96159.13;5005278;28;19926;-86
2023/05/31 03:54:13;;;;;;;;;;;;;;;13.04;100.00;96149.16;5015291;28;20012;-88
2023/05/31 03:56:40;;;;;;;;;;;;;;;13.06;100.00;96146.19;4997207;28;20032;-87
2023/05/31 03:59:09;;;;;;;;;;;;;;;13.04;100.00;96154.56;5020146;28;19933;-87
2023/05/31 04:01:35;;;;;;;;;;;;;;;13.04;100.00;96157.28;4995029;28;20000;-88
2023/05/31 04:04:02;;;;;;;;;;;;;;;13.08;100.00;96155.72;5011737;28;19925;-86
2023/05/31 04:06:31;;;;;;;;;;;;;;;13.09;100.00;96165.50;5018863;28;19980;-87
2023/05/31 04:08:58;;;;;;;;;;;;;;;13.14;100.00;96164.78;5017707;28;19933;-89
2023/05/31 04:11:25;;;;;;;;;;;;;;;13.11;100.00;96167.94;5011680;28;19936;-88
2023/05/31 04:13:53;;;;;;;;;;;;;;;13.10;100.00;96171.75;5023171;28;19996;-88
2023/05/31 04:16:22;;;;;;;;;;;;;;;13.05;100.00;96177.09;5023522;28;19929;-88
2023/05/31 04:18:49;;;;;;;;;;;;;;;12.98;100.00;96173.72;5031175;28;19975;-87
2023/05/31 04:21:16;;;;;;;;;;;;;;;12.97;100.00;96177.50;5029193;28;19925;-88
2023/05/31 04:23:43;;;;;;;;;;;;;;;12.96;100.00;96182.09;5026741;28;19924;-87
2023/05/31 04:26:16;;;;;;;;;;;;;;;12.94;100.00;96184.25;5025386;28;19952;-86
2023/05/31 04:28:45;;;;;;;;;;;;;;;12.93;100.00;96184.50;5029491;28;19951;-86
2023/05/31 04:31:12;;;;;;;;;;;;;;;12.90;100.00;96177.69;5033990;28;19925;-88
2023/05/31 04:33:42;;;;;;;;;;;;;;;12.86;100.00;96181.97;5038604;28;19925;-87
2023/05/31 04:36:10;;;;;;;;;;;;;;;12.87;100.00;96195.25;5026791;28;19979;-87
2023/05/31 04:38:39;;;;;;;;;;;;;;;12.93;100.00;96195.34;5025143;28;19975;-88
2023/05/31 04:41:06;;;;;;;;;;;;;;;12.99;100.00;96187.03;5028541;28;19925;-88
2023/05/31 04:43:34;;;;;;;;;;;;;;;12.99;100.00;96192.47;5018978;28;19972;-88
2023/05/31 04:46:01;;;;;;;;;;;;;;;12.99;100.00;96200.59;5016684;28;20009;-86
2023/05/31 04:48:28;;;;;;;;;;;;;;;12.96;100.00;96195.66;5026557;28;19952;-87
2023/05/31 04:50:59;;;;;;;;;;;;;;;12.99;100.00;96200.59;5029039;28;19932;-88
2023/05/31 04:53:26;;;;;;;;;;;;;;;13.02;100.00;96197.38;5024243;28;19929;-88
2023/05/31 04:55:52;;;;;;;;;;;;;;;13.06;100.00;96205.84;5027689;28;19925;-88
2023/05/31 04:58:20;;;;;;;;;;;;;;;13.08;100.00;96201.00;5019678;28;19931;-87
2023/05/31 05:00:48;;;;;;;;;;;;;;;13.14;100.00;96200.84;5024944;28;19979;-88
2023/05/31 05:03:24;;;;;;;;;;;;;;;13.16;100.00;96201.41;5025179;28;19975;-86
2023/05/31 05:05:51;;;;;;;;;;;;;;;13.16;100.00;96209.53;5032659;28;19936;-87
2023/05/31 05:08:20;;;;;;;;;;;;;;;13.20;100.00;96207.13;5019709;28;19925;-88
2023/05/31 05:10:47;;;;;;;;;;;;;;;13.25;100.00;96208.06;5010988;28;19925;-88
2023/05/31 05:13:15;;;;;;;;;;;;;;;13.36;100.00;96213.59;5036768;28;19925;-88
2023/05/31 05:15:43;;;;;;;;;;;;;;;13.32;100.00;96209.75;5027881;28;19979;-86
2023/05/31 05:18:11;;;;;;;;;;;;;;;13.31;100.00;96210.81;5022381;28;19987;-87
2023/05/31 05:20:39;;;;;;;;;;;;;;;13.31;100.00;96203.50;5032201;28;20035;-88
2023/05/31 05:23:07;;;;;;;;;;;;;;;13.28;100.00;96209.41;5039444;28;20048;-87
2023/05/31 05:25:37;;;;;;;;;;;;;;;13.24;100.00;96216.44;5017269;28;19925;-86
2023/05/31 05:28:03;;;;;;;;;;;;;;;13.27;100.00;96215.13;5044066;28;19929;-87
2023/05/31 05:30:30;;;;;;;;;;;;;;;13.28;100.00;96217.56;5028521;28;19925;-88
2023/05/31 05:32:57;;;;;;;;;;;;;;;13.33;100.00;96223.06;5027333;28;19932;-87
2023/05/31 05:35:24;;;;;;;;;;;;;;;13.33;100.00;96225.78;5024695;28;19992;-89
2023/05/31 05:37:52;;;;;;;;;;;;;;;13.36;100.00;96227.97;5017499;28;20024;-87
2023/05/31 05:40:20;;;;;;;;;;;;;;;13.42;100.00;96231.59;5050982;28;20027;-88
2023/05/31 05:42:49;;;;;;;;;;;;;;;13.47;100.00;96237.06;5024799;28;19995;-88
2023/05/31 05:45:17;;;;;;;;;;;;;;;13.47;100.00;96232.47;5023433;28;19925;-87
2023/05/31 05:47:45;;;;;;;;;;;;;;;13.49;100.00;96241.19;5043610;28;19929;-87
2023/05/31 05:50:13;;;;;;;;;;;;;;;13.55;100.00;96248.31;5020130;28;19953;-87
2023/05/31 05:52:40;;;;;;;;;;;;;;;13.54;100.00;96252.09;5027940;28;19960;-86
2023/05/31 05:55:08;;;;;;;;;;;;;;;13.52;100.00;96250.72;5034487;28;19925;-87
2023/05/31 05:57:36;;;;;;;;;;;;;;;13.55;100.00;96251.00;5019251;28;19925;-85
2023/05/31 06:00:44;;;;;;;;;;;;;;;13.56;100.00;96252.66;4990983;28;19925;-88
2023/05/31 06:03:11;;;;;;;;;;;;;;;13.60;100.00;96253.00;4984073;28;20617;-87
2023/05/31 06:05:38;;;;;;;;;;;;;;;13.57;100.00;96248.88;5005591;28;19992;-88
2023/05/31 06:08:06;;;;;;;;;;;;;;;13.53;100.00;96249.63;5026553;28;19955;-87
2023/05/31 06:10:33;;;;;;;;;;;;;;;13.51;100.00;96244.47;5030972;28;19933;-87
2023/05/31 06:13:00;;;;;;;;;;;;;;;13.55;100.00;96253.72;5032655;28;19932;-88
2023/05/31 06:15:27;;;;;;;;;;;;;;;13.51;100.00;96244.47;5035974;28;19928;-86
2023/05/31 06:17:56;;;;;;;;;;;;;;;13.45;100.00;96240.03;5033907;28;19925;-87
2023/05/31 06:20:23;;;;;;;;;;;;;;;13.39;100.00;96240.22;5028741;28;19959;-87
2023/05/31 06:22:51;;;;;;;;;;;;;;;13.32;100.00;96232.25;5031867;28;20253;-87
2023/05/31 06:25:19;;;;;;;;;;;;;;;13.30;100.00;96237.13;5025585;28;19971;-87
2023/05/31 06:27:46;;;;;;;;;;;;;;;13.31;100.00;96232.50;5033325;28;19928;-87
2023/05/31 06:30:13;;;;;;;;;;;;;;;13.34;100.00;96227.41;5018902;28;19924;-87
2023/05/31 06:32:44;;;;;;;;;;;;;;;13.43;100.00;96225.91;5028084;28;19931;-87
2023/05/31 06:35:16;;;;;;;;;;;;;;;13.54;100.00;96221.44;5028665;28;19948;-86
2023/05/31 06:37:45;;;;;;;;;;;;;;;13.60;100.00;96226.69;5017771;28;19979;-88
2023/05/31 06:40:12;;;;;;;;;;;;;;;13.66;100.00;96226.75;5027343;28;19925;-88
2023/05/31 06:42:40;;;;;;;;;;;;;;;13.72;100.00;96234.69;5027240;28;20104;-86
2023/05/31 06:45:19;;;;;;;;;;;;;;;13.76;100.00;96224.16;5045801;28;19936;-85
2023/05/31 06:48:07;;;;;;;;;;;;;;;13.83;100.00;96230.22;5040344;28;19925;-87
2023/05/31 06:50:53;;;;;;;;;;;;;;;13.86;100.00;96235.13;5041130;28;20113;-87
2023/05/31 06:53:39;;;;;;;;;;;;;;;13.87;100.00;96223.19;5043998;28;19932;-86
2023/05/31 06:56:32;;;;;;;;;;;;;;;13.95;100.00;96231.69;5034684;28;19929;-88
2023/05/31 06:58:59;;;;;;;;;;;;;;;13.96;100.00;96232.50;5023322;28;19960;-87
2023/05/31 07:01:26;;;;;;;;;;;;;;;13.94;100.00;96237.41;5021950;28;19975;-86
2023/05/31 07:03:53;;;;;;;;;;;;;;;13.95;100.00;96236.34;5038832;28;19937;-85
2023/05/31 07:06:22;;;;;;;;;;;;;;;13.95;100.00;96239.03;5014255;28;19925;-87
2023/05/31 07:08:50;;;;;;;;;;;;;;;14.03;100.00;96233.16;5023992;28;19935;-87
2023/05/31 07:11:26;;;;;;;;;;;;;;;14.08;100.00;96232.38;5041855;28;19925;-87
2023/05/31 07:13:54;;;;;;;;;;;;;;;14.32;100.00;96229.13;5028295;28;19928;-87
2023/05/31 07:16:20;;;;;;;;;;;;;;;14.71;100.00;96227.06;5031982;28;19925;-86
2023/05/31 07:18:48;;;;;;;;;;;;;;;15.06;100.00;96226.50;5026283;28;20086;-89
2023/05/31 07:21:16;;;;;;;;;;;;;;;15.49;100.00;96224.59;5024692;28;19933;-86
2023/05/31 07:23:45;;;;;;;;;;;;;;;15.97;100.00;96233.56;5027328;28;19936;-87
2023/05/31 07:26:11;;;;;;;;;;;;;;;16.46;100.00;96223.06;5020520;28;19936;-87
2023/05/31 07:28:38;;;;;;;;;;;;;;;16.89;100.00;96219.03;5046020;28;19925;-86
2023/05/31 07:31:06;;;;;;;;;;;;;;;17.15;100.00;96222.56;5026401;28;19925;-85
2023/05/31 07:33:32;;;;;;;;;;;;;;;17.19;100.00;96221.72;5019571;28;19959;-86
2023/05/31 07:36:00;;;;;;;;;;;;;;;17.48;100.00;96221.13;5040945;28;19936;-87
2023/05/31 07:38:27;;;;;;;;;;;;;;;17.72;100.00;96213.97;5030354;28;20023;-85
2023/05/31 07:40:57;;;;;;;;;;;;;;;17.85;100.00;96220.78;5014476;28;19924;-87
2023/05/31 07:43:25;;;;;;;;;;;;;;;18.10;100.00;96216.00;5026105;28;19929;-85
2023/05/31 07:45:54;;;;;;;;;;;;;;;18.51;100.00;96222.06;5048200;28;19924;-88
2023/05/31 07:48:20;;;;;;;;;;;;;;;18.87;100.00;96224.56;5025575;28;19963;-91
2023/05/31 07:50:47;;;;;;;;;;;;;;;19.20;100.00;96221.00;5023330;28;19948;-86
2023/05/31 07:53:15;;;;;;;;;;;;;;;19.42;100.00;96228.72;5037367;28;19932;-86
2023/05/31 07:55:41;;;;;;;;;;;;;;;19.35;100.00;96227.44;5033417;28;19925;-87
2023/05/31 07:58:11;;;;;;;;;;;;;;;19.53;100.00;96222.06;5047450;28;19952;-87
2023/05/31 08:00:39;;;;;;;;;;;;;;;19.68;98.15;96223.00;5032381;28;19925;-86
2023/05/31 08:03:06;;;;;;;;;;;;;;;19.74;97.80;96227.31;5033630;28;19924;-88
2023/05/31 08:05:33;;;;;;;;;;;;;;;19.84;96.80;96218.97;5038969;28;19939;-85
2023/05/31 08:08:00;;;;;;;;;;;;;;;19.96;96.61;96220.22;5026578;28;19929;-88
2023/05/31 08:10:27;;;;;;;;;;;;;;;19.94;95.83;96213.38;5038002;28;19933;-86
2023/05/31 08:12:54;;;;;;;;;;;;;;;19.97;96.11;96218.28;5029294;28;19924;-86
2023/05/31 08:15:23;;;;;;;;;;;;;;;20.22;97.98;96214.41;5025447;28;20151;-86
2023/05/31 08:17:50;;;;;;;;;;;;;;;20.39;93.41;96215.56;5029188;28;19925;-85
2023/05/31 08:20:17;;;;;;;;;;;;;;;20.37;92.57;96217.78;5027812;28;19925;-87
2023/05/31 08:22:44;;;;;;;;;;;;;;;20.39;91.49;96207.34;5047628;28;19992;-87
2023/05/31 08:25:12;;;;;;;;;;;;;;;20.46;88.37;96206.97;5038154;28;19928;-85
2023/05/31 08:27:39;;;;;;;;;;;;;;;20.52;88.96;96207.69;5026556;28;19929;-86
2023/05/31 08:30:09;;;;;;;;;;;;;;;20.59;86.99;96206.19;5028052;28;19929;-86
2023/05/31 08:32:37;;;;;;;;;;;;;;;20.62;86.82;96202.06;5023034;28;19925;-87
2023/05/31 08:35:06;;;;;;;;;;;;;;;20.68;85.58;96198.13;5044583;28;19925;-86
2023/05/31 08:37:32;;;;;;;;;;;;;;;20.68;87.52;96201.69;5027875;28;19929;-85
2023/05/31 08:40:00;;;;;;;;;;;;;;;20.75;85.53;96201.31;5039451;28;19986;-86
2023/05/31 08:42:29;;;;;;;;;;;;;;;20.86;86.13;96201.94;5028963;28;19996;-87
2023/05/31 08:44:56;;;;;;;;;;;;;;;20.94;87.77;96204.84;5029723;28;20035;-86
2023/05/31 08:47:25;;;;;;;;;;;;;;;21.03;86.76;96197.53;5025997;28;19925;-86
2023/05/31 08:49:53;;;;;;;;;;;;;;;21.05;84.91;96208.22;5028954;28;19929;-88
2023/05/31 08:52:21;;;;;;;;;;;;;;;21.20;85.71;96207.19;5046321;28;19956;-88
2023/05/31 08:54:50;;;;;;;;;;;;;;;21.12;85.00;96201.22;5031531;28;19925;-88
2023/05/31 08:57:18;;;;;;;;;;;;;;;21.24;86.20;96191.75;5039018;28;19936;-86
2023/05/31 08:59:46;;;;;;;;;;;;;;;21.42;85.05;96182.63;5030309;28;20067;-85
2023/05/31 09:02:13;;;;;;;;;;;;;;;21.63;86.17;96177.53;5041749;28;19932;-86
2023/05/31 09:04:41;;;;;;;;;;;;;;;21.69;83.26;96179.09;5047521;28;19924;-88
2023/05/31 09:07:09;;;;;;;;;;;;;;;21.76;82.10;96180.31;5008802;28;19929;-87
2023/05/31 09:09:35;;;;;;;;;;;;;;;21.82;79.21;96178.25;5011469;28;19926;-86
2023/05/31 09:12:02;;;;;;;;;;;;;;;21.90;82.99;96172.88;5011630;28;19934;-85
2023/05/31 09:14:30;;;;;;;;;;;;;;;22.05;79.92;96170.94;5020371;28;19941;-88
2023/05/31 09:16:57;;;;;;;;;;;;;;;22.04;79.27;96181.13;5008347;28;19932;-86
2023/05/31 09:19:24;;;;;;;;;;;;;;;22.07;80.16;96179.72;5009013;28;19932;-88
2023/05/31 09:21:52;;;;;;;;;;;;;;;22.02;82.20;96175.13;5010269;28;19925;-88
2023/05/31 09:24:21;;;;;;;;;;;;;;;22.05;79.63;96184.69;5023140;28;19925;-85
2023/05/31 09:26:48;;;;;;;;;;;;;;;22.02;80.14;96179.81;5025181;28;20040;-89
2023/05/31 09:29:16;;;;;;;;;;;;;;;21.81;78.81;96179.38;5008032;28;19929;-89
2023/05/31 09:31:43;;;;;;;;;;;;;;;21.83;83.44;96172.47;5013386;28;19934;-90
2023/05/31 09:34:24;;;;;;;;;;;;;;;21.96;79.98;96173.56;5005251;28;19972;-89
2023/05/31 09:36:51;;;;;;;;;;;;;;;22.16;81.08;96175.94;5006823;28;19925;-87
2023/05/31 09:39:19;;;;;;;;;;;;;;;22.30;77.95;96170.38;5007084;28;19929;-87
2023/05/31 09:41:51;;;;;;;;;;;;;;;22.27;78.52;96171.84;5013549;28;19929;-87
2023/05/31 09:44:18;;;;;;;;;;;;;;;22.19;77.53;96171.75;5012151;28;19978;-88
2023/05/31 09:46:45;;;;;;;;;;;;;;;22.15;80.09;96170.72;5002247;28;20187;-89
2023/05/31 09:49:12;;;;;;;;;;;;;;;22.43;80.87;96174.25;5003904;28;19925;-88
2023/05/31 09:51:40;;;;;;;;;;;;;;;22.55;78.53;96174.50;5006959;28;19933;-87
2023/05/31 09:54:11;;;;;;;;;;;;;;;22.44;75.00;96171.19;5022024;28;19925;-86
2023/05/31 09:56:39;;;;;;;;;;;;;;;22.45;76.76;96172.81;5023929;28;19956;-87
2023/05/31 09:59:08;;;;;;;;;;;;;;;22.52;77.39;96172.38;5005201;28;20019;-87
2023/05/31 10:01:35;;;;;;;;;;;;;;;22.72;76.50;96179.31;5014869;28;19925;-88
2023/05/31 10:04:03;;;;;;;;;;;;;;;22.67;75.68;96174.78;5011438;28;19929;-88
2023/05/31 10:06:31;;;;;;;;;;;;;;;22.64;76.79;96172.63;5018100;28;19933;-87
2023/05/31 10:08:57;;;;;;;;;;;;;;;22.60;76.29;96172.47;5018423;28;20195;-86
2023/05/31 10:11:27;;;;;;;;;;;;;;;22.78;76.38;96175.38;5036469;28;19968;-87
2023/05/31 10:13:58;;;;;;;;;;;;;;;22.87;75.84;96179.00;5042260;28;19933;-87
2023/05/31 10:16:27;;;;;;;;;;;;;;;22.59;74.46;96179.09;5024689;28;19929;-87
2023/05/31 10:18:56;;;;;;;;;;;;;;;22.46;77.97;96165.34;5026855;28;20157;-86
2023/05/31 10:21:25;;;;;;;;;;;;;;;22.28;76.68;96172.66;5041306;28;19925;-87
2023/05/31 10:23:57;;;;;;;;;;;;;;;22.21;77.38;96169.47;5027287;28;19951;-87
2023/05/31 10:26:27;;;;;;;;;;;;;;;22.09;77.39;96178.28;5037739;28;19932;-87
2023/05/31 10:28:57;;;;;;;;;;;;;;;21.74;79.09;96168.81;5030065;28;19929;-87
2023/05/31 10:31:26;;;;;;;;;;;;;;;21.79;81.25;96174.19;5018690;28;19980;-87
2023/05/31 10:33:58;;;;;;;;;;;;;;;22.18;77.66;96172.88;5027721;28;19961;-88
2023/05/31 10:36:25;;;;;;;;;;;;;;;22.12;75.56;96174.09;5027938;28;19933;-88
2023/05/31 10:38:56;;;;;;;;;;;;;;;21.96;75.56;96165.31;5029418;28;19925;-87
2023/05/31 10:41:24;;;;;;;;;;;;;;;21.97;78.44;96163.38;5025233;28;20219;-89
2023/05/31 10:43:56;;;;;;;;;;;;;;;21.97;77.70;96171.63;5024313;28;19936;-88
2023/05/31 10:46:25;;;;;;;;;;;;;;;22.11;78.84;96158.72;5027802;28;19925;-88
2023/05/31 10:48:54;;;;;;;;;;;;;;;22.31;77.69;96154.69;5026417;28;19982;-87
2023/05/31 10:51:38;;;;;;;;;;;;;;;22.54;75.92;96150.88;5026971;28;19925;-86
2023/05/31 10:54:05;;;;;;;;;;;;;;;22.77;74.96;96158.06;5039605;28;19933;-89
2023/05/31 10:56:32;;;;;;;;;;;;;;;23.02;74.54;96151.09;5029823;28;19925;-89
2023/05/31 10:58:59;;;;;;;;;;;;;;;23.15;72.58;96147.44;5029430;28;19930;-87
2023/05/31 11:01:29;;;;;;;;;;;;;;;23.29;71.63;96148.19;5035768;28;19948;-90
2023/05/31 11:03:57;;;;;;;;;;;;;;;23.50;73.74;96133.88;5033532;28;19932;-90
2023/05/31 11:06:26;;;;;;;;;;;;;;;23.42;72.69;96142.88;5027114;28;19967;-91
2023/05/31 11:08:57;;;;;;;;;;;;;;;23.25;74.21;96138.91;5023623;28;19929;-94
2023/05/31 11:11:28;;;;;;;;;;;;;;;23.39;73.73;96139.63;5026428;28;19940;-92
2023/05/31 11:14:00;;;;;;;;;;;;;;;23.70;72.57;96136.06;5029339;28;19953;-91
2023/05/31 11:16:28;;;;;;;;;;;;;;;23.87;72.32;96132.56;5045951;28;19944;-92
2023/05/31 11:19:07;;;;;;;;;;;;;;;24.11;70.95;96122.72;5028867;28;19940;-89
2023/05/31 11:21:49;;;;;;;;;;;;;;;24.24;71.98;96126.50;5032846;28;19930;-90
2023/05/31 11:24:29;;;;;;;;;;;;;;;24.56;69.30;96135.44;5028422;28;19925;-89
2023/05/31 11:26:57;;;;;;;;;;;;;;;24.86;70.18;96126.16;5031868;28;19959;-90
2023/05/31 11:29:25;;;;;;;;;;;;;;;25.05;67.76;96120.31;5032108;28;19933;-91
2023/05/31 11:32:11;;;;;;;;;;;;;;;24.82;68.31;96123.25;5034582;28;19925;-92
2023/05/31 11:34:49;;;;;;;;;;;;;;;24.93;67.67;96132.03;5031250;28;20000;-91
2023/05/31 11:37:18;;;;;;;;;;;;;;;24.62;68.52;96123.09;5025288;28;19932;-91
2023/05/31 11:39:45;;;;;;;;;;;;;;;24.53;69.90;96125.84;5027987;28;19925;-91
2023/05/31 11:42:12;;;;;;;;;;;;;;;24.33;70.01;96129.28;5038163;28;19948;-91
2023/05/31 11:44:43;;;;;;;;;;;;;;;24.24;69.85;96126.50;5044187;28;19952;-93
2023/05/31 11:47:11;;;;;;;;;;;;;;;24.17;71.12;96122.53;5020906;28;19929;-93
2023/05/31 11:49:37;;;;;;;;;;;;;;;24.14;70.76;96118.50;5033087;28;19932;-88
2023/05/31 11:52:05;;;;;;;;;;;;;;;24.02;73.00;96118.31;5032665;28;19925;-90
2023/05/31 11:54:35;;;;;;;;;;;;;;;24.11;74.57;96116.38;5028257;28;19926;-93
2023/05/31 11:57:06;;;;;;;;;;;;;;;24.16;73.75;96112.66;5025864;28;19925;-91
2023/05/31 11:59:33;;;;;;;;;;;;;;;24.04;71.11;96113.28;5029547;28;19929;-93
2023/05/31 12:02:01;;;;;;;;;;;;;;;24.18;71.53;96113.94;5034504;28;19975;-91
2023/05/31 12:04:29;;;;;;;;;;;;;;;24.71;71.11;96104.56;5032193;28;19932;-91
2023/05/31 12:06:56;;;;;;;;;;;;;;;25.12;68.41;96109.56;5030435;28;19932;-90
2023/05/31 12:09:24;;;;;;;;;;;;;;;25.38;68.80;96104.78;5031936;28;19968;-94
2023/05/31 12:11:53;;;;;;;;;;;;;;;25.38;66.42;96102.00;5031042;28;19948;-92
2023/05/31 12:14:20;;;;;;;;;;;;;;;25.41;65.74;96106.88;5030260;28;19937;-92
2023/05/31 12:16:49;;;;;;;;;;;;;;;25.59;65.47;96097.41;5035078;28;19926;-92
2023/05/31 12:19:16;;;;;;;;;;;;;;;25.84;66.39;96092.91;5027555;28;20292;-91
2023/05/31 12:21:44;;;;;;;;;;;;;;;26.05;65.10;96098.44;5029497;28;19979;-91
2023/05/31 12:24:15;;;;;;;;;;;;;;;26.17;65.70;96089.44;5031390;28;19925;-89
2023/05/31 12:26:43;;;;;;;;;;;;;;;26.27;64.45;96087.13;5027843;28;19932;-91
2023/05/31 12:29:11;;;;;;;;;;;;;;;26.17;63.79;96078.38;5041117;28;19929;-87
2023/05/31 12:31:39;;;;;;;;;;;;;;;25.90;63.92;96079.69;5050629;28;19925;-90
2023/05/31 12:34:10;;;;;;;;;;;;;;;26.20;63.94;96083.22;5041218;28;19925;-93
2023/05/31 12:36:42;;;;;;;;;;;;;;;26.11;62.72;96082.47;5034808;28;19998;-91
2023/05/31 12:39:11;;;;;;;;;;;;;;;26.12;62.74;96079.34;5035453;28;19930;-90
2023/05/31 12:41:38;;;;;;;;;;;;;;;25.80;62.72;96071.75;5034255;28;19926;-94
2023/05/31 12:44:07;;;;;;;;;;;;;;;25.84;61.86;96069.97;5033173;28;19925;-92
2023/05/31 12:46:41;;;;;;;;;;;;;;;25.85;63.51;96066.06;5032426;28;19925;-93
2023/05/31 12:49:19;;;;;;;;;;;;;;;25.88;63.67;96065.38;5038514;28;19913;-87